sensor_id;sensor_type;location;lat;lon;timestamp;P1;durP1;ratioP1;P2;durP2;ratioP2
31596;SDS011;18201;50.978;7.034;2023-03-05T04:27:26;7.28;;;2.97;;
31596;SDS011;18201;50.978;7.034;2023-03-05T04:27:58;16.75;;;3.35;;
31596;SDS011;18201;50.978;7.034;2023-03-05T04:28:29;13.65;;;4.03;;
31596;SDS011;18201;50.978;7.034;2023-03-05T04:29:00;9.27;;;3.22;;
31596;SDS011;18201;50.978;7.034;2023-03-05T04:29:32;6.18;;;3.00;;
31596;SDS011;18201;50.978;7.034;2023-03-05T04:30:04;8.30;;;3.40;;
31596;SDS011;18201;50.978;7.034;2023-03-05T04:30:36;14.18;;;3.97;;
31596;SDS011;18201;50.978;7.034;2023-03-05T04:31:07;10.75;;;3.13;;
31596;SDS011;18201;50.978;7.034;2023-03-05T04:31:39;9.82;;;3.45;;
31596;SDS011;18201;50.978;7.034;2023-03-05T04:32:10;10.55;;;3.90;;
31596;SDS011;18201;50.978;7.034;2023-03-05T04:32:41;13.73;;;3.65;;
31596;SDS011;18201;50.978;7.034;2023-03-05T04:33:13;10.48;;;3.20;;
31596;SDS011;18201;50.978;7.034;2023-03-05T04:33:44;10.85;;;3.88;;
31596;SDS011;18201;50.978;7.034;2023-03-05T04:34:15;7.50;;;3.35;;
31596;SDS011;18201;50.978;7.034;2023-03-05T04:34:47;10.88;;;3.55;;
31596;SDS011;18201;50.978;7.034;2023-03-05T04:35:18;9.65;;;3.22;;
31596;SDS011;18201;50.978;7.034;2023-03-05T04:35:49;10.07;;;3.47;;
31596;SDS011;18201;50.978;7.034;2023-03-05T04:36:22;6.57;;;2.85;;
31596;SDS011;18201;50.978;7.034;2023-03-05T04:36:53;7.13;;;3.65;;
31596;SDS011;18201;50.978;7.034;2023-03-05T04:37:24;11.50;;;3.80;;
31596;SDS011;18201;50.978;7.034;2023-03-05T04:37:56;13.32;;;3.50;;
31596;SDS011;18201;50.978;7.034;2023-03-05T04:38:28;14.85;;;3.25;;
31596;SDS011;18201;50.978;7.034;2023-03-05T04:38:59;7.68;;;3.47;;
31596;SDS011;18201;50.978;7.034;2023-03-05T04:39:30;7.70;;;2.55;;
31596;SDS011;18201;50.978;7.034;2023-03-05T04:40:02;13.45;;;3.88;;
31596;SDS011;18201;50.978;7.034;2023-03-05T04:40:34;14.05;;;3.90;;
31596;SDS011;18201;50.978;7.034;2023-03-05T04:41:05;17.08;;;4.18;;
31596;SDS011;18201;50.978;7.034;2023-03-05T04:41:36;9.50;;;3.10;;
31596;SDS011;18201;50.978;7.034;2023-03-05T04:42:07;8.55;;;3.40;;
31596;SDS011;18201;50.978;7.034;2023-03-05T04:42:40;8.88;;;3.53;;
31596;SDS011;18201;50.978;7.034;2023-03-05T04:43:12;8.75;;;3.33;;
31596;SDS011;18201;50.978;7.034;2023-03-05T04:43:43;9.88;;;3.55;;
31596;SDS011;18201;50.978;7.034;2023-03-05T04:44:14;7.80;;;2.88;;
31596;SDS011;18201;50.978;7.034;2023-03-05T04:44:47;8.73;;;3.78;;
31596;SDS011;18201;50.978;7.034;2023-03-05T04:45:18;12.00;;;3.60;;
31596;SDS011;18201;50.978;7.034;2023-03-05T04:45:49;7.70;;;3.13;;
31596;SDS011;18201;50.978;7.034;2023-03-05T04:46:21;8.55;;;4.25;;
31596;SDS011;18201;50.978;7.034;2023-03-05T04:46:51;11.60;;;4.13;;
31596;SDS011;18201;50.978;7.034;2023-03-05T04:47:22;12.45;;;3.75;;
31596;SDS011;18201;50.978;7.034;2023-03-05T04:47:54;12.48;;;3.40;;
31596;SDS011;18201;50.978;7.034;2023-03-05T04:48:25;9.25;;;3.33;;
31596;SDS011;18201;50.978;7.034;2023-03-05T04:48:57;10.52;;;4.20;;
31596;SDS011;18201;50.978;7.034;2023-03-05T04:49:29;14.27;;;3.58;;
31596;SDS011;18201;50.978;7.034;2023-03-05T04:50:00;10.70;;;3.33;;
31596;SDS011;18201;50.978;7.034;2023-03-05T04:50:30;9.55;;;3.78;;
31596;SDS011;18201;50.978;7.034;2023-03-05T04:51:01;9.48;;;3.20;;
31596;SDS011;18201;50.978;7.034;2023-03-05T04:51:33;15.43;;;4.05;;
31596;SDS011;18201;50.978;7.034;2023-03-05T04:52:04;11.60;;;4.35;;
31596;SDS011;18201;50.978;7.034;2023-03-05T04:52:36;12.55;;;3.85;;
31596;SDS011;18201;50.978;7.034;2023-03-05T04:53:08;11.63;;;3.55;;
31596;SDS011;18201;50.978;7.034;2023-03-05T04:53:40;9.77;;;3.42;;
31596;SDS011;18201;50.978;7.034;2023-03-05T04:54:11;7.97;;;3.08;;
31596;SDS011;18201;50.978;7.034;2023-03-05T04:54:42;10.32;;;3.60;;
31596;SDS011;18201;50.978;7.034;2023-03-05T04:55:15;8.95;;;3.72;;
31596;SDS011;18201;50.978;7.034;2023-03-05T04:55:51;8.82;;;3.55;;
31596;SDS011;18201;50.978;7.034;2023-03-05T04:56:22;9.27;;;3.42;;
31596;SDS011;18201;50.978;7.034;2023-03-05T04:56:54;9.48;;;4.63;;
31596;SDS011;18201;50.978;7.034;2023-03-05T04:57:25;14.32;;;3.90;;
31596;SDS011;18201;50.978;7.034;2023-03-05T04:57:57;11.52;;;3.35;;
31596;SDS011;18201;50.978;7.034;2023-03-05T04:58:29;11.55;;;4.75;;
31596;SDS011;18201;50.978;7.034;2023-03-05T04:59:00;10.82;;;3.88;;
31596;SDS011;18201;50.978;7.034;2023-03-05T04:59:31;7.93;;;3.50;;
31596;SDS011;18201;50.978;7.034;2023-03-05T05:00:03;9.40;;;3.38;;
31596;SDS011;18201;50.978;7.034;2023-03-05T05:00:36;11.10;;;3.80;;
31596;SDS011;18201;50.978;7.034;2023-03-05T05:01:07;10.52;;;3.72;;
31596;SDS011;18201;50.978;7.034;2023-03-05T05:01:38;10.00;;;3.40;;
31596;SDS011;18201;50.978;7.034;2023-03-05T05:02:09;16.17;;;3.58;;
31596;SDS011;18201;50.978;7.034;2023-03-05T05:02:40;10.65;;;3.53;;
31596;SDS011;18201;50.978;7.034;2023-03-05T05:03:13;9.73;;;3.72;;
31596;SDS011;18201;50.978;7.034;2023-03-05T05:03:44;11.07;;;3.63;;
31596;SDS011;18201;50.978;7.034;2023-03-05T05:04:15;15.57;;;3.92;;
31596;SDS011;18201;50.978;7.034;2023-03-05T05:04:46;12.30;;;3.50;;
31596;SDS011;18201;50.978;7.034;2023-03-05T05:05:18;10.57;;;3.72;;
31596;SDS011;18201;50.978;7.034;2023-03-05T05:05:53;10.32;;;3.78;;
31596;SDS011;18201;50.978;7.034;2023-03-05T05:06:25;12.82;;;3.72;;
31596;SDS011;18201;50.978;7.034;2023-03-05T05:06:56;10.30;;;3.08;;
31596;SDS011;18201;50.978;7.034;2023-03-05T05:07:28;12.43;;;3.53;;
31596;SDS011;18201;50.978;7.034;2023-03-05T05:07:59;11.80;;;3.38;;
31596;SDS011;18201;50.978;7.034;2023-03-05T05:08:30;11.82;;;3.78;;
31596;SDS011;18201;50.978;7.034;2023-03-05T05:09:01;13.05;;;4.30;;
31596;SDS011;18201;50.978;7.034;2023-03-05T05:09:32;7.97;;;3.78;;
31596;SDS011;18201;50.978;7.034;2023-03-05T05:10:05;9.90;;;3.53;;
31596;SDS011;18201;50.978;7.034;2023-03-05T05:10:37;12.70;;;3.63;;
31596;SDS011;18201;50.978;7.034;2023-03-05T05:11:09;10.38;;;3.85;;
31596;SDS011;18201;50.978;7.034;2023-03-05T05:11:43;8.95;;;3.10;;
31596;SDS011;18201;50.978;7.034;2023-03-05T05:12:14;11.88;;;3.78;;
31596;SDS011;18201;50.978;7.034;2023-03-05T05:12:45;14.07;;;4.15;;
31596;SDS011;18201;50.978;7.034;2023-03-05T05:13:18;8.07;;;4.10;;
31596;SDS011;18201;50.978;7.034;2023-03-05T05:13:50;10.23;;;3.20;;
31596;SDS011;18201;50.978;7.034;2023-03-05T05:14:21;8.45;;;2.92;;
31596;SDS011;18201;50.978;7.034;2023-03-05T05:14:52;11.02;;;3.58;;
31596;SDS011;18201;50.978;7.034;2023-03-05T05:15:23;8.65;;;3.40;;
31596;SDS011;18201;50.978;7.034;2023-03-05T05:15:55;8.85;;;3.08;;
31596;SDS011;18201;50.978;7.034;2023-03-05T05:16:26;11.45;;;3.38;;
31596;SDS011;18201;50.978;7.034;2023-03-05T05:16:57;5.35;;;2.97;;
31596;SDS011;18201;50.978;7.034;2023-03-05T05:17:30;8.88;;;4.40;;
31596;SDS011;18201;50.978;7.034;2023-03-05T05:18:03;14.02;;;3.55;;
31596;SDS011;18201;50.978;7.034;2023-03-05T05:18:33;10.65;;;3.00;;
31596;SDS011;18201;50.978;7.034;2023-03-05T05:19:06;14.20;;;3.70;;
31596;SDS011;18201;50.978;7.034;2023-03-05T05:19:37;9.52;;;3.40;;
31596;SDS011;18201;50.978;7.034;2023-03-05T05:20:09;10.63;;;3.05;;
31596;SDS011;18201;50.978;7.034;2023-03-05T05:20:42;8.52;;;3.22;;
31596;SDS011;18201;50.978;7.034;2023-03-05T05:21:13;10.90;;;3.55;;
31596;SDS011;18201;50.978;7.034;2023-03-05T05:21:44;8.55;;;3.67;;
31596;SDS011;18201;50.978;7.034;2023-03-05T05:22:16;13.85;;;3.75;;
31596;SDS011;18201;50.978;7.034;2023-03-05T05:22:47;13.40;;;4.35;;
31596;SDS011;18201;50.978;7.034;2023-03-05T05:23:18;10.00;;;3.40;;
31596;SDS011;18201;50.978;7.034;2023-03-05T05:23:50;8.82;;;3.45;;
31596;SDS011;18201;50.978;7.034;2023-03-05T05:24:21;9.68;;;3.17;;
31596;SDS011;18201;50.978;7.034;2023-03-05T05:24:52;14.32;;;3.78;;
31596;SDS011;18201;50.978;7.034;2023-03-05T05:25:23;9.15;;;3.00;;
31596;SDS011;18201;50.978;7.034;2023-03-05T05:25:55;15.10;;;3.45;;
31596;SDS011;18201;50.978;7.034;2023-03-05T05:26:27;19.05;;;4.25;;
31596;SDS011;18201;50.978;7.034;2023-03-05T05:26:59;14.15;;;4.40;;
31596;SDS011;18201;50.978;7.034;2023-03-05T05:27:30;10.07;;;3.80;;
31596;SDS011;18201;50.978;7.034;2023-03-05T05:28:01;13.85;;;3.60;;
31596;SDS011;18201;50.978;7.034;2023-03-05T05:28:34;14.55;;;3.60;;
31596;SDS011;18201;50.978;7.034;2023-03-05T05:29:07;16.30;;;3.55;;
31596;SDS011;18201;50.978;7.034;2023-03-05T05:29:38;10.95;;;4.47;;
31596;SDS011;18201;50.978;7.034;2023-03-05T05:30:10;11.00;;;3.28;;
31596;SDS011;18201;50.978;7.034;2023-03-05T05:30:41;7.75;;;3.75;;
31596;SDS011;18201;50.978;7.034;2023-03-05T05:31:13;12.45;;;4.25;;
31596;SDS011;18201;50.978;7.034;2023-03-05T05:31:46;11.73;;;3.85;;
31596;SDS011;18201;50.978;7.034;2023-03-05T05:32:17;16.50;;;4.00;;
31596;SDS011;18201;50.978;7.034;2023-03-05T05:32:49;16.00;;;3.50;;
31596;SDS011;18201;50.978;7.034;2023-03-05T05:33:21;11.38;;;3.22;;
31596;SDS011;18201;50.978;7.034;2023-03-05T05:33:52;11.48;;;3.60;;
31596;SDS011;18201;50.978;7.034;2023-03-05T05:34:23;9.20;;;3.70;;
31596;SDS011;18201;50.978;7.034;2023-03-05T05:34:56;11.80;;;4.18;;
31596;SDS011;18201;50.978;7.034;2023-03-05T05:35:28;10.05;;;3.67;;
31596;SDS011;18201;50.978;7.034;2023-03-05T05:36:00;10.70;;;4.03;;
31596;SDS011;18201;50.978;7.034;2023-03-05T05:36:33;7.55;;;3.40;;
31596;SDS011;18201;50.978;7.034;2023-03-05T05:37:03;15.80;;;4.68;;
31596;SDS011;18201;50.978;7.034;2023-03-05T05:37:34;9.13;;;3.70;;
31596;SDS011;18201;50.978;7.034;2023-03-05T05:38:06;9.43;;;4.32;;
31596;SDS011;18201;50.978;7.034;2023-03-05T05:38:37;12.20;;;4.13;;
31596;SDS011;18201;50.978;7.034;2023-03-05T05:39:08;10.88;;;3.83;;
31596;SDS011;18201;50.978;7.034;2023-03-05T05:39:40;12.82;;;4.25;;
31596;SDS011;18201;50.978;7.034;2023-03-05T05:40:12;6.25;;;3.40;;
31596;SDS011;18201;50.978;7.034;2023-03-05T05:40:43;16.30;;;5.00;;
31596;SDS011;18201;50.978;7.034;2023-03-05T05:41:14;13.77;;;3.72;;
31596;SDS011;18201;50.978;7.034;2023-03-05T05:41:48;14.40;;;3.83;;
31596;SDS011;18201;50.978;7.034;2023-03-05T05:42:20;15.10;;;4.45;;
31596;SDS011;18201;50.978;7.034;2023-03-05T05:42:53;12.52;;;3.65;;
31596;SDS011;18201;50.978;7.034;2023-03-05T05:43:24;11.25;;;4.35;;
31596;SDS011;18201;50.978;7.034;2023-03-05T05:43:57;13.57;;;4.45;;
31596;SDS011;18201;50.978;7.034;2023-03-05T05:44:28;10.02;;;4.47;;
31596;SDS011;18201;50.978;7.034;2023-03-05T05:44:59;10.80;;;3.60;;
31596;SDS011;18201;50.978;7.034;2023-03-05T05:45:32;10.95;;;4.15;;
31596;SDS011;18201;50.978;7.034;2023-03-05T05:46:03;8.73;;;3.78;;
31596;SDS011;18201;50.978;7.034;2023-03-05T05:46:37;12.73;;;4.75;;
31596;SDS011;18201;50.978;7.034;2023-03-05T05:47:08;14.00;;;4.30;;
31596;SDS011;18201;50.978;7.034;2023-03-05T05:47:38;9.85;;;4.32;;
31596;SDS011;18201;50.978;7.034;2023-03-05T05:48:09;10.68;;;4.45;;
31596;SDS011;18201;50.978;7.034;2023-03-05T05:48:42;11.82;;;4.45;;
31596;SDS011;18201;50.978;7.034;2023-03-05T05:49:13;10.25;;;4.22;;
31596;SDS011;18201;50.978;7.034;2023-03-05T05:49:44;12.30;;;4.78;;
31596;SDS011;18201;50.978;7.034;2023-03-05T05:50:17;13.68;;;3.70;;
31596;SDS011;18201;50.978;7.034;2023-03-05T05:50:48;13.15;;;4.88;;
31596;SDS011;18201;50.978;7.034;2023-03-05T05:51:19;13.90;;;4.45;;
31596;SDS011;18201;50.978;7.034;2023-03-05T05:51:53;10.73;;;3.80;;
31596;SDS011;18201;50.978;7.034;2023-03-05T05:52:23;12.85;;;4.82;;
31596;SDS011;18201;50.978;7.034;2023-03-05T05:52:54;16.40;;;4.65;;
31596;SDS011;18201;50.978;7.034;2023-03-05T05:53:26;17.42;;;4.93;;
31596;SDS011;18201;50.978;7.034;2023-03-05T05:53:57;11.13;;;4.20;;
31596;SDS011;18201;50.978;7.034;2023-03-05T05:54:28;14.82;;;4.15;;
31596;SDS011;18201;50.978;7.034;2023-03-05T05:55:00;11.88;;;4.00;;
31596;SDS011;18201;50.978;7.034;2023-03-05T05:55:31;15.15;;;4.47;;
31596;SDS011;18201;50.978;7.034;2023-03-05T05:56:02;14.18;;;4.25;;
31596;SDS011;18201;50.978;7.034;2023-03-05T05:56:36;9.52;;;3.45;;
31596;SDS011;18201;50.978;7.034;2023-03-05T05:57:07;9.02;;;3.67;;
31596;SDS011;18201;50.978;7.034;2023-03-05T05:57:38;9.27;;;3.45;;
31596;SDS011;18201;50.978;7.034;2023-03-05T05:58:10;10.07;;;4.45;;
31596;SDS011;18201;50.978;7.034;2023-03-05T05:58:41;13.07;;;4.00;;
31596;SDS011;18201;50.978;7.034;2023-03-05T05:59:15;12.57;;;4.28;;
31596;SDS011;18201;50.978;7.034;2023-03-05T05:59:47;12.30;;;4.72;;
31596;SDS011;18201;50.978;7.034;2023-03-05T06:00:18;11.60;;;3.92;;
31596;SDS011;18201;50.978;7.034;2023-03-05T06:00:49;11.75;;;3.80;;
31596;SDS011;18201;50.978;7.034;2023-03-05T06:01:22;14.07;;;4.50;;
31596;SDS011;18201;50.978;7.034;2023-03-05T06:01:55;11.32;;;4.45;;
31596;SDS011;18201;50.978;7.034;2023-03-05T06:02:26;20.92;;;5.40;;
31596;SDS011;18201;50.978;7.034;2023-03-05T06:02:58;17.80;;;4.18;;
31596;SDS011;18201;50.978;7.034;2023-03-05T06:03:29;13.38;;;5.03;;
31596;SDS011;18201;50.978;7.034;2023-03-05T06:04:00;9.48;;;3.67;;
31596;SDS011;18201;50.978;7.034;2023-03-05T06:04:32;9.50;;;3.90;;
31596;SDS011;18201;50.978;7.034;2023-03-05T06:05:03;15.02;;;4.47;;
31596;SDS011;18201;50.978;7.034;2023-03-05T06:05:35;7.95;;;3.88;;
31596;SDS011;18201;50.978;7.034;2023-03-05T06:06:08;12.52;;;3.97;;
31596;SDS011;18201;50.978;7.034;2023-03-05T06:06:39;14.90;;;3.80;;
31596;SDS011;18201;50.978;7.034;2023-03-05T06:07:10;8.25;;;3.63;;
31596;SDS011;18201;50.978;7.034;2023-03-05T06:07:42;15.13;;;4.32;;
31596;SDS011;18201;50.978;7.034;2023-03-05T06:08:13;12.70;;;3.88;;
31596;SDS011;18201;50.978;7.034;2023-03-05T06:08:44;7.85;;;4.43;;
31596;SDS011;18201;50.978;7.034;2023-03-05T06:09:15;11.07;;;4.15;;
31596;SDS011;18201;50.978;7.034;2023-03-05T06:09:47;12.60;;;3.88;;
31596;SDS011;18201;50.978;7.034;2023-03-05T06:10:18;10.98;;;4.10;;
31596;SDS011;18201;50.978;7.034;2023-03-05T06:10:53;7.95;;;3.72;;
31596;SDS011;18201;50.978;7.034;2023-03-05T06:11:25;11.80;;;4.40;;
31596;SDS011;18201;50.978;7.034;2023-03-05T06:11:56;14.43;;;4.90;;
31596;SDS011;18201;50.978;7.034;2023-03-05T06:12:27;12.38;;;3.88;;
31596;SDS011;18201;50.978;7.034;2023-03-05T06:12:58;11.02;;;4.00;;
31596;SDS011;18201;50.978;7.034;2023-03-05T06:13:30;8.70;;;3.72;;
31596;SDS011;18201;50.978;7.034;2023-03-05T06:14:01;13.00;;;3.90;;
31596;SDS011;18201;50.978;7.034;2023-03-05T06:14:34;17.27;;;4.32;;
31596;SDS011;18201;50.978;7.034;2023-03-05T06:15:06;11.65;;;3.65;;
31596;SDS011;18201;50.978;7.034;2023-03-05T06:15:37;13.50;;;4.55;;
31596;SDS011;18201;50.978;7.034;2023-03-05T06:16:10;7.60;;;3.03;;
31596;SDS011;18201;50.978;7.034;2023-03-05T06:16:43;13.85;;;4.55;;
31596;SDS011;18201;50.978;7.034;2023-03-05T06:17:14;9.50;;;3.75;;
31596;SDS011;18201;50.978;7.034;2023-03-05T06:17:45;8.45;;;3.42;;
31596;SDS011;18201;50.978;7.034;2023-03-05T06:18:17;10.73;;;3.25;;
31596;SDS011;18201;50.978;7.034;2023-03-05T06:18:49;9.80;;;3.72;;
31596;SDS011;18201;50.978;7.034;2023-03-05T06:19:20;11.15;;;3.83;;
31596;SDS011;18201;50.978;7.034;2023-03-05T06:19:53;16.10;;;4.03;;
31596;SDS011;18201;50.978;7.034;2023-03-05T06:20:24;11.40;;;3.40;;
31596;SDS011;18201;50.978;7.034;2023-03-05T06:20:55;10.55;;;3.38;;
31596;SDS011;18201;50.978;7.034;2023-03-05T06:21:26;8.00;;;3.72;;
31596;SDS011;18201;50.978;7.034;2023-03-05T06:21:58;10.35;;;4.20;;
31596;SDS011;18201;50.978;7.034;2023-03-05T06:22:29;13.07;;;3.90;;
31596;SDS011;18201;50.978;7.034;2023-03-05T06:23:00;16.25;;;4.13;;
31596;SDS011;18201;50.978;7.034;2023-03-05T06:23:32;11.18;;;3.60;;
31596;SDS011;18201;50.978;7.034;2023-03-05T06:24:04;16.02;;;4.05;;
31596;SDS011;18201;50.978;7.034;2023-03-05T06:24:36;11.55;;;3.67;;
31596;SDS011;18201;50.978;7.034;2023-03-05T06:25:08;12.35;;;3.92;;
31596;SDS011;18201;50.978;7.034;2023-03-05T06:25:40;9.73;;;3.83;;
31596;SDS011;18201;50.978;7.034;2023-03-05T06:26:11;9.25;;;4.00;;
31596;SDS011;18201;50.978;7.034;2023-03-05T06:26:43;13.23;;;4.95;;
31596;SDS011;18201;50.978;7.034;2023-03-05T06:27:17;13.35;;;4.75;;
31596;SDS011;18201;50.978;7.034;2023-03-05T06:27:48;15.43;;;4.18;;
31596;SDS011;18201;50.978;7.034;2023-03-05T06:28:19;17.05;;;4.75;;
31596;SDS011;18201;50.978;7.034;2023-03-05T06:28:51;10.23;;;4.05;;
31596;SDS011;18201;50.978;7.034;2023-03-05T06:29:22;13.57;;;4.00;;
31596;SDS011;18201;50.978;7.034;2023-03-05T06:29:55;9.13;;;4.15;;
31596;SDS011;18201;50.978;7.034;2023-03-05T06:30:27;14.23;;;3.78;;
31596;SDS011;18201;50.978;7.034;2023-03-05T06:30:58;10.85;;;3.88;;
31596;SDS011;18201;50.978;7.034;2023-03-05T06:31:30;10.77;;;4.13;;
31596;SDS011;18201;50.978;7.034;2023-03-05T06:32:02;15.93;;;4.00;;
31596;SDS011;18201;50.978;7.034;2023-03-05T06:32:34;11.10;;;4.18;;
31596;SDS011;18201;50.978;7.034;2023-03-05T06:33:05;14.00;;;4.95;;
31596;SDS011;18201;50.978;7.034;2023-03-05T06:33:36;13.75;;;4.63;;
31596;SDS011;18201;50.978;7.034;2023-03-05T06:34:08;12.73;;;3.88;;
31596;SDS011;18201;50.978;7.034;2023-03-05T06:34:39;11.55;;;4.50;;
31596;SDS011;18201;50.978;7.034;2023-03-05T06:35:10;14.43;;;4.90;;
31596;SDS011;18201;50.978;7.034;2023-03-05T06:35:43;9.10;;;4.57;;
31596;SDS011;18201;50.978;7.034;2023-03-05T06:36:15;21.77;;;5.00;;
31596;SDS011;18201;50.978;7.034;2023-03-05T06:36:47;14.75;;;4.85;;
31596;SDS011;18201;50.978;7.034;2023-03-05T06:37:19;11.10;;;4.53;;
31596;SDS011;18201;50.978;7.034;2023-03-05T06:37:50;16.05;;;4.95;;
31596;SDS011;18201;50.978;7.034;2023-03-05T06:38:21;12.82;;;4.40;;
31596;SDS011;18201;50.978;7.034;2023-03-05T06:38:54;16.70;;;4.20;;
31596;SDS011;18201;50.978;7.034;2023-03-05T06:39:25;16.98;;;4.85;;
31596;SDS011;18201;50.978;7.034;2023-03-05T06:39:56;12.10;;;4.43;;
31596;SDS011;18201;50.978;7.034;2023-03-05T06:40:28;9.45;;;4.38;;
31596;SDS011;18201;50.978;7.034;2023-03-05T06:40:59;11.60;;;4.30;;
31596;SDS011;18201;50.978;7.034;2023-03-05T06:41:31;10.98;;;4.20;;
31596;SDS011;18201;50.978;7.034;2023-03-05T06:42:03;12.00;;;4.22;;
31596;SDS011;18201;50.978;7.034;2023-03-05T06:42:34;10.20;;;4.30;;
31596;SDS011;18201;50.978;7.034;2023-03-05T06:43:05;15.77;;;4.05;;
31596;SDS011;18201;50.978;7.034;2023-03-05T06:43:38;12.98;;;3.75;;
31596;SDS011;18201;50.978;7.034;2023-03-05T06:44:10;11.60;;;4.40;;
31596;SDS011;18201;50.978;7.034;2023-03-05T06:44:40;18.98;;;4.35;;
31596;SDS011;18201;50.978;7.034;2023-03-05T06:45:14;15.05;;;4.75;;
31596;SDS011;18201;50.978;7.034;2023-03-05T06:45:45;16.98;;;4.72;;
31596;SDS011;18201;50.978;7.034;2023-03-05T06:46:17;13.57;;;4.10;;
31596;SDS011;18201;50.978;7.034;2023-03-05T06:46:49;13.88;;;4.72;;
31596;SDS011;18201;50.978;7.034;2023-03-05T06:47:20;15.30;;;4.85;;
31596;SDS011;18201;50.978;7.034;2023-03-05T06:47:51;17.60;;;4.20;;
31596;SDS011;18201;50.978;7.034;2023-03-05T06:48:23;13.43;;;4.93;;
31596;SDS011;18201;50.978;7.034;2023-03-05T06:48:54;10.48;;;4.00;;
31596;SDS011;18201;50.978;7.034;2023-03-05T06:49:26;11.80;;;4.13;;
31596;SDS011;18201;50.978;7.034;2023-03-05T06:49:58;17.70;;;4.65;;
31596;SDS011;18201;50.978;7.034;2023-03-05T06:50:29;16.40;;;4.55;;
31596;SDS011;18201;50.978;7.034;2023-03-05T06:50:59;15.38;;;4.70;;
31596;SDS011;18201;50.978;7.034;2023-03-05T06:51:32;21.00;;;4.40;;
31596;SDS011;18201;50.978;7.034;2023-03-05T06:52:05;13.35;;;3.67;;
31596;SDS011;18201;50.978;7.034;2023-03-05T06:52:39;11.48;;;3.80;;
31596;SDS011;18201;50.978;7.034;2023-03-05T06:53:10;12.82;;;4.65;;
31596;SDS011;18201;50.978;7.034;2023-03-05T06:53:41;12.60;;;4.20;;
31596;SDS011;18201;50.978;7.034;2023-03-05T06:54:13;10.10;;;4.10;;
31596;SDS011;18201;50.978;7.034;2023-03-05T06:54:46;14.32;;;4.07;;
31596;SDS011;18201;50.978;7.034;2023-03-05T06:55:17;12.43;;;4.20;;
31596;SDS011;18201;50.978;7.034;2023-03-05T06:55:49;17.88;;;4.22;;
31596;SDS011;18201;50.978;7.034;2023-03-05T06:56:20;17.00;;;3.85;;
31596;SDS011;18201;50.978;7.034;2023-03-05T06:56:53;17.42;;;3.85;;
31596;SDS011;18201;50.978;7.034;2023-03-05T06:57:24;11.10;;;4.30;;
31596;SDS011;18201;50.978;7.034;2023-03-05T06:57:55;13.13;;;4.80;;
31596;SDS011;18201;50.978;7.034;2023-03-05T06:58:27;15.98;;;4.78;;
31596;SDS011;18201;50.978;7.034;2023-03-05T06:58:57;9.57;;;3.53;;
31596;SDS011;18201;50.978;7.034;2023-03-05T06:59:28;19.67;;;5.03;;
31596;SDS011;18201;50.978;7.034;2023-03-05T07:00:00;13.02;;;4.40;;
31596;SDS011;18201;50.978;7.034;2023-03-05T07:00:32;8.20;;;3.80;;
31596;SDS011;18201;50.978;7.034;2023-03-05T07:01:04;14.57;;;3.90;;
31596;SDS011;18201;50.978;7.034;2023-03-05T07:01:36;14.27;;;3.75;;
31596;SDS011;18201;50.978;7.034;2023-03-05T07:02:08;16.58;;;4.43;;
31596;SDS011;18201;50.978;7.034;2023-03-05T07:02:40;14.95;;;4.35;;
31596;SDS011;18201;50.978;7.034;2023-03-05T07:03:16;9.43;;;3.30;;
31596;SDS011;18201;50.978;7.034;2023-03-05T07:03:47;11.68;;;4.10;;
31596;SDS011;18201;50.978;7.034;2023-03-05T07:04:20;10.27;;;4.03;;
31596;SDS011;18201;50.978;7.034;2023-03-05T07:04:53;13.13;;;4.32;;
31596;SDS011;18201;50.978;7.034;2023-03-05T07:05:25;12.25;;;3.97;;
31596;SDS011;18201;50.978;7.034;2023-03-05T07:05:55;11.05;;;3.30;;
31596;SDS011;18201;50.978;7.034;2023-03-05T07:06:26;11.68;;;4.82;;
31596;SDS011;18201;50.978;7.034;2023-03-05T07:06:59;15.88;;;4.55;;
31596;SDS011;18201;50.978;7.034;2023-03-05T07:07:30;7.97;;;3.78;;
31596;SDS011;18201;50.978;7.034;2023-03-05T07:08:01;14.73;;;4.85;;
31596;SDS011;18201;50.978;7.034;2023-03-05T07:08:33;13.30;;;3.78;;
31596;SDS011;18201;50.978;7.034;2023-03-05T07:09:05;9.43;;;3.30;;
31596;SDS011;18201;50.978;7.034;2023-03-05T07:09:38;9.98;;;3.90;;
31596;SDS011;18201;50.978;7.034;2023-03-05T07:10:12;8.68;;;3.35;;
31596;SDS011;18201;50.978;7.034;2023-03-05T07:10:43;8.40;;;3.10;;
31596;SDS011;18201;50.978;7.034;2023-03-05T07:11:16;10.43;;;4.35;;
31596;SDS011;18201;50.978;7.034;2023-03-05T07:11:48;11.35;;;4.03;;
31596;SDS011;18201;50.978;7.034;2023-03-05T07:12:19;17.35;;;4.30;;
31596;SDS011;18201;50.978;7.034;2023-03-05T07:12:51;12.63;;;4.22;;
31596;SDS011;18201;50.978;7.034;2023-03-05T07:13:22;10.07;;;3.72;;
31596;SDS011;18201;50.978;7.034;2023-03-05T07:13:53;13.48;;;4.05;;
31596;SDS011;18201;50.978;7.034;2023-03-05T07:14:25;10.20;;;3.80;;
31596;SDS011;18201;50.978;7.034;2023-03-05T07:14:55;16.98;;;4.18;;
31596;SDS011;18201;50.978;7.034;2023-03-05T07:15:26;14.48;;;4.05;;
31596;SDS011;18201;50.978;7.034;2023-03-05T07:16:03;12.68;;;4.15;;
31596;SDS011;18201;50.978;7.034;2023-03-05T07:16:34;9.93;;;4.60;;
31596;SDS011;18201;50.978;7.034;2023-03-05T07:17:05;14.55;;;4.78;;
31596;SDS011;18201;50.978;7.034;2023-03-05T07:17:38;17.77;;;4.93;;
31596;SDS011;18201;50.978;7.034;2023-03-05T07:18:08;14.68;;;4.38;;
31596;SDS011;18201;50.978;7.034;2023-03-05T07:18:39;10.07;;;4.15;;
31596;SDS011;18201;50.978;7.034;2023-03-05T07:19:11;15.15;;;4.85;;
31596;SDS011;18201;50.978;7.034;2023-03-05T07:19:42;8.15;;;4.03;;
31596;SDS011;18201;50.978;7.034;2023-03-05T07:20:13;10.32;;;4.55;;
31596;SDS011;18201;50.978;7.034;2023-03-05T07:20:45;13.40;;;4.45;;
31596;SDS011;18201;50.978;7.034;2023-03-05T07:21:16;15.38;;;5.03;;
31596;SDS011;18201;50.978;7.034;2023-03-05T07:21:49;11.23;;;5.38;;
31596;SDS011;18201;50.978;7.034;2023-03-05T07:22:21;13.95;;;5.15;;
31596;SDS011;18201;50.978;7.034;2023-03-05T07:22:51;10.95;;;5.45;;
31596;SDS011;18201;50.978;7.034;2023-03-05T07:23:22;13.60;;;5.75;;
31596;SDS011;18201;50.978;7.034;2023-03-05T07:23:55;12.95;;;5.30;;
31596;SDS011;18201;50.978;7.034;2023-03-05T07:24:27;13.45;;;5.60;;
31596;SDS011;18201;50.978;7.034;2023-03-05T07:24:59;19.02;;;5.80;;
31596;SDS011;18201;50.978;7.034;2023-03-05T07:25:30;15.30;;;5.95;;
31596;SDS011;18201;50.978;7.034;2023-03-05T07:26:03;12.30;;;5.20;;
31596;SDS011;18201;50.978;7.034;2023-03-05T07:26:34;14.45;;;5.50;;
31596;SDS011;18201;50.978;7.034;2023-03-05T07:27:06;23.17;;;6.15;;
31596;SDS011;18201;50.978;7.034;2023-03-05T07:27:37;15.50;;;5.88;;
31596;SDS011;18201;50.978;7.034;2023-03-05T07:28:08;19.10;;;6.97;;
31596;SDS011;18201;50.978;7.034;2023-03-05T07:28:40;18.15;;;6.22;;
31596;SDS011;18201;50.978;7.034;2023-03-05T07:29:12;17.10;;;7.20;;
31596;SDS011;18201;50.978;7.034;2023-03-05T07:29:43;13.80;;;5.90;;
31596;SDS011;18201;50.978;7.034;2023-03-05T07:30:15;14.52;;;5.60;;
31596;SDS011;18201;50.978;7.034;2023-03-05T07:30:53;19.92;;;6.28;;
31596;SDS011;18201;50.978;7.034;2023-03-05T07:31:26;27.75;;;6.60;;
31596;SDS011;18201;50.978;7.034;2023-03-05T07:32:00;14.50;;;6.47;;
31596;SDS011;18201;50.978;7.034;2023-03-05T07:32:33;19.35;;;6.10;;
31596;SDS011;18201;50.978;7.034;2023-03-05T07:33:05;13.85;;;5.82;;
31596;SDS011;18201;50.978;7.034;2023-03-05T07:33:36;26.08;;;8.40;;
31596;SDS011;18201;50.978;7.034;2023-03-05T07:34:08;21.48;;;7.57;;
31596;SDS011;18201;50.978;7.034;2023-03-05T07:34:40;15.65;;;6.43;;
31596;SDS011;18201;50.978;7.034;2023-03-05T07:35:11;13.52;;;6.13;;
31596;SDS011;18201;50.978;7.034;2023-03-05T07:35:42;17.40;;;6.68;;
31596;SDS011;18201;50.978;7.034;2023-03-05T07:36:14;16.92;;;6.72;;